sensor_id;sensor_type;location;lat;lon;timestamp;pressure;altitude;pressure_sealevel;temperature;humidity
9740;BME280;4909;42.680;26.324;2022-09-13T00:00:42;98040.47;;;19.29;63.34
9740;BME280;4909;42.680;26.324;2022-09-13T00:03:10;98033.53;;;19.27;63.53
9740;BME280;4909;42.680;26.324;2022-09-13T00:05:38;98052.13;;;19.39;63.32
9740;BME280;4909;42.680;26.324;2022-09-13T00:08:07;98044.84;;;19.21;63.69
9740;BME280;4909;42.680;26.324;2022-09-13T00:10:35;98042.81;;;19.13;63.47
9740;BME280;4909;42.680;26.324;2022-09-13T00:13:03;98043.84;;;19.12;63.66
9740;BME280;4909;42.680;26.324;2022-09-13T00:15:30;98042.38;;;19.08;63.95
9740;BME280;4909;42.680;26.324;2022-09-13T00:17:58;98046.91;;;19.07;63.63
9740;BME280;4909;42.680;26.324;2022-09-13T00:20:27;97981.53;;;18.77;64.81
9740;BME280;4909;42.680;26.324;2022-09-13T00:22:54;98047.66;;;19.19;64.05
9740;BME280;4909;42.680;26.324;2022-09-13T00:25:22;98047.34;;;19.13;63.48
9740;BME280;4909;42.680;26.324;2022-09-13T00:27:49;98044.53;;;19.14;63.65
9740;BME280;4909;42.680;26.324;2022-09-13T00:30:16;98056.03;;;19.16;63.71
9740;BME280;4909;42.680;26.324;2022-09-13T00:32:43;98074.72;;;19.27;63.43
9740;BME280;4909;42.680;26.324;2022-09-13T00:35:10;98065.97;;;19.25;63.85
9740;BME280;4909;42.680;26.324;2022-09-13T00:37:37;98087.44;;;19.16;63.82
9740;BME280;4909;42.680;26.324;2022-09-13T00:40:05;98077.09;;;19.11;63.99
9740;BME280;4909;42.680;26.324;2022-09-13T00:42:33;98090.44;;;19.22;64.00
9740;BME280;4909;42.680;26.324;2022-09-13T00:45:01;98049.66;;;18.87;64.24
9740;BME280;4909;42.680;26.324;2022-09-13T00:47:33;98075.63;;;18.97;63.90
9740;BME280;4909;42.680;26.324;2022-09-13T00:50:07;98097.94;;;19.19;63.45
9740;BME280;4909;42.680;26.324;2022-09-13T00:52:36;98113.03;;;19.10;63.82
9740;BME280;4909;42.680;26.324;2022-09-13T00:55:10;98096.28;;;19.37;63.87
9740;BME280;4909;42.680;26.324;2022-09-13T00:57:40;98074.53;;;19.09;64.05
9740;BME280;4909;42.680;26.324;2022-09-13T01:00:12;98097.19;;;19.07;64.28
9740;BME280;4909;42.680;26.324;2022-09-13T01:02:46;98122.19;;;19.28;63.59
9740;BME280;4909;42.680;26.324;2022-09-13T01:05:17;98098.78;;;19.19;62.90
9740;BME280;4909;42.680;26.324;2022-09-13T01:07:46;98118.56;;;19.39;63.03
9740;BME280;4909;42.680;26.324;2022-09-13T01:10:13;98097.44;;;19.34;63.85
9740;BME280;4909;42.680;26.324;2022-09-13T01:12:45;98121.91;;;19.62;62.35
9740;BME280;4909;42.680;26.324;2022-09-13T01:15:14;98112.28;;;19.59;62.24
9740;BME280;4909;42.680;26.324;2022-09-13T01:17:42;98125.69;;;19.80;63.10
9740;BME280;4909;42.680;26.324;2022-09-13T01:20:10;98125.94;;;19.77;61.75
9740;BME280;4909;42.680;26.324;2022-09-13T01:29:22;98122.84;;;19.51;63.73
9740;BME280;4909;42.680;26.324;2022-09-13T01:32:05;98128.91;;;19.43;62.42
9740;BME280;4909;42.680;26.324;2022-09-13T01:34:43;98138.19;;;19.50;61.67
9740;BME280;4909;42.680;26.324;2022-09-13T01:37:26;98106.72;;;19.51;63.52
9740;BME280;4909;42.680;26.324;2022-09-13T01:40:16;98122.19;;;19.28;62.96
9740;BME280;4909;42.680;26.324;2022-09-13T01:43:03;98118.19;;;19.23;64.70
9740;BME280;4909;42.680;26.324;2022-09-13T01:45:38;98141.91;;;19.59;63.69
9740;BME280;4909;42.680;26.324;2022-09-13T01:48:16;98131.13;;;19.59;62.37
9740;BME280;4909;42.680;26.324;2022-09-13T01:50:49;98132.84;;;19.60;63.42
9740;BME280;4909;42.680;26.324;2022-09-13T01:53:24;98140.09;;;19.69;63.01
9740;BME280;4909;42.680;26.324;2022-09-13T01:55:59;98131.94;;;19.50;62.10
9740;BME280;4909;42.680;26.324;2022-09-13T01:58:30;98133.13;;;19.67;63.46
9740;BME280;4909;42.680;26.324;2022-09-13T02:01:05;98111.03;;;19.73;62.56
9740;BME280;4909;42.680;26.324;2022-09-13T02:03:37;98137.63;;;20.06;61.00
9740;BME280;4909;42.680;26.324;2022-09-13T02:06:10;98137.28;;;19.90;62.07
9740;BME280;4909;42.680;26.324;2022-09-13T02:08:42;98119.28;;;19.81;62.78
9740;BME280;4909;42.680;26.324;2022-09-13T02:11:12;98135.56;;;19.70;61.47
9740;BME280;4909;42.680;26.324;2022-09-13T02:13:42;98137.97;;;19.42;62.55
9740;BME280;4909;42.680;26.324;2022-09-13T02:16:15;98135.09;;;19.34;63.21
9740;BME280;4909;42.680;26.324;2022-09-13T02:18:46;98089.91;;;19.28;63.24
9740;BME280;4909;42.680;26.324;2022-09-13T02:21:16;98123.06;;;19.38;63.85
9740;BME280;4909;42.680;26.324;2022-09-13T02:23:48;98125.09;;;19.16;63.28
9740;BME280;4909;42.680;26.324;2022-09-13T02:26:18;98127.22;;;19.12;64.17
9740;BME280;4909;42.680;26.324;2022-09-13T02:28:49;98131.50;;;19.24;63.43
9740;BME280;4909;42.680;26.324;2022-09-13T02:31:20;98104.88;;;19.21;64.74
9740;BME280;4909;42.680;26.324;2022-09-13T02:33:52;98135.47;;;18.99;64.17
9740;BME280;4909;42.680;26.324;2022-09-13T02:36:25;98132.44;;;19.14;64.80
9740;BME280;4909;42.680;26.324;2022-09-13T02:38:56;98131.84;;;19.31;63.34
9740;BME280;4909;42.680;26.324;2022-09-13T02:41:30;98112.38;;;19.48;64.55
9740;BME280;4909;42.680;26.324;2022-09-13T02:44:03;98142.38;;;19.74;64.22
9740;BME280;4909;42.680;26.324;2022-09-13T02:46:46;98122.97;;;19.80;63.31
9740;BME280;4909;42.680;26.324;2022-09-13T02:49:24;98122.59;;;20.13;62.68
9740;BME280;4909;42.680;26.324;2022-09-13T02:52:00;98126.16;;;20.04;61.72
9740;BME280;4909;42.680;26.324;2022-09-13T02:54:37;98109.81;;;19.96;62.43
9740;BME280;4909;42.680;26.324;2022-09-13T02:57:10;98125.97;;;20.06;62.24
9740;BME280;4909;42.680;26.324;2022-09-13T02:59:40;98125.13;;;19.95;63.20
9740;BME280;4909;42.680;26.324;2022-09-13T03:02:10;98137.75;;;20.14;62.47
9740;BME280;4909;42.680;26.324;2022-09-13T03:04:39;98138.81;;;20.32;62.17
9740;BME280;4909;42.680;26.324;2022-09-13T03:07:09;98130.41;;;20.26;61.23
9740;BME280;4909;42.680;26.324;2022-09-13T03:09:48;98120.88;;;19.93;60.41
9740;BME280;4909;42.680;26.324;2022-09-13T03:12:29;98125.94;;;19.86;60.77
9740;BME280;4909;42.680;26.324;2022-09-13T03:15:07;98126.06;;;19.85;62.51
9740;BME280;4909;42.680;26.324;2022-09-13T03:17:47;98146.25;;;20.10;62.31
9740;BME280;4909;42.680;26.324;2022-09-13T03:20:23;98138.75;;;19.94;62.58
9740;BME280;4909;42.680;26.324;2022-09-13T03:23:33;98147.66;;;19.94;61.83
9740;BME280;4909;42.680;26.324;2022-09-13T03:26:16;98138.16;;;20.00;60.37
9740;BME280;4909;42.680;26.324;2022-09-13T03:28:54;98150.69;;;19.71;61.90
9740;BME280;4909;42.680;26.324;2022-09-13T03:31:29;98135.75;;;19.47;62.62
9740;BME280;4909;42.680;26.324;2022-09-13T03:34:06;98141.59;;;19.62;63.00
9740;BME280;4909;42.680;26.324;2022-09-13T03:36:41;98120.78;;;19.55;63.30
9740;BME280;4909;42.680;26.324;2022-09-13T03:39:16;98144.25;;;19.92;63.08
9740;BME280;4909;42.680;26.324;2022-09-13T03:41:50;98123.13;;;19.88;62.69
9740;BME280;4909;42.680;26.324;2022-09-13T03:44:22;98140.88;;;20.10;63.46
9740;BME280;4909;42.680;26.324;2022-09-13T03:46:54;98147.41;;;20.07;61.56
9740;BME280;4909;42.680;26.324;2022-09-13T03:49:26;98149.97;;;20.09;61.27
9740;BME280;4909;42.680;26.324;2022-09-13T03:51:56;98119.28;;;19.41;61.99
9740;BME280;4909;42.680;26.324;2022-09-13T03:54:27;98153.38;;;19.61;62.16
9740;BME280;4909;42.680;26.324;2022-09-13T03:57:06;98133.91;;;19.27;62.63
9740;BME280;4909;42.680;26.324;2022-09-13T03:59:34;98155.25;;;19.40;63.64
9740;BME280;4909;42.680;26.324;2022-09-13T04:02:03;98147.56;;;19.66;64.55
9740;BME280;4909;42.680;26.324;2022-09-13T04:04:30;98155.75;;;19.55;61.63
9740;BME280;4909;42.680;26.324;2022-09-13T04:06:59;98156.53;;;19.76;63.81
9740;BME280;4909;42.680;26.324;2022-09-13T04:09:29;98155.63;;;20.06;62.28
9740;BME280;4909;42.680;26.324;2022-09-13T04:11:55;98154.38;;;19.60;61.09
9740;BME280;4909;42.680;26.324;2022-09-13T04:14:22;98158.31;;;19.56;62.55
9740;BME280;4909;42.680;26.324;2022-09-13T04:16:51;98164.59;;;19.76;63.48
9740;BME280;4909;42.680;26.324;2022-09-13T04:19:19;98154.72;;;19.86;61.11
9740;BME280;4909;42.680;26.324;2022-09-13T04:21:46;98137.72;;;19.95;63.29
9740;BME280;4909;42.680;26.324;2022-09-13T04:24:15;98167.84;;;20.19;60.45
9740;BME280;4909;42.680;26.324;2022-09-13T04:26:43;98167.84;;;20.19;62.61
9740;BME280;4909;42.680;26.324;2022-09-13T04:29:10;98165.78;;;20.32;61.53
9740;BME280;4909;42.680;26.324;2022-09-13T04:31:37;98166.34;;;20.46;62.28
9740;BME280;4909;42.680;26.324;2022-09-13T04:34:04;98166.47;;;20.34;61.32
9740;BME280;4909;42.680;26.324;2022-09-13T04:36:31;98173.88;;;20.42;59.96
9740;BME280;4909;42.680;26.324;2022-09-13T04:38:58;98183.03;;;19.80;60.30
9740;BME280;4909;42.680;26.324;2022-09-13T04:41:26;98180.03;;;19.43;61.10
9740;BME280;4909;42.680;26.324;2022-09-13T04:43:54;98183.66;;;19.53;62.71
9740;BME280;4909;42.680;26.324;2022-09-13T04:46:21;98183.69;;;19.93;62.69
9740;BME280;4909;42.680;26.324;2022-09-13T04:48:48;98180.97;;;19.93;60.37
9740;BME280;4909;42.680;26.324;2022-09-13T04:51:16;98189.91;;;19.94;61.89
9740;BME280;4909;42.680;26.324;2022-09-13T04:53:43;98165.69;;;20.04;61.79
9740;BME280;4909;42.680;26.324;2022-09-13T04:56:10;98192.47;;;20.05;60.04
9740;BME280;4909;42.680;26.324;2022-09-13T04:58:40;98200.16;;;20.19;61.01
9740;BME280;4909;42.680;26.324;2022-09-13T05:01:08;98182.56;;;20.15;59.16
9740;BME280;4909;42.680;26.324;2022-09-13T05:03:36;98189.81;;;20.24;61.01
9740;BME280;4909;42.680;26.324;2022-09-13T05:06:03;98200.25;;;20.48;60.72
9740;BME280;4909;42.680;26.324;2022-09-13T05:08:31;98208.50;;;20.47;59.70
9740;BME280;4909;42.680;26.324;2022-09-13T05:10:58;98198.75;;;20.25;58.29
9740;BME280;4909;42.680;26.324;2022-09-13T05:13:25;98211.81;;;20.20;58.75
9740;BME280;4909;42.680;26.324;2022-09-13T05:15:55;98177.19;;;20.15;59.03
9740;BME280;4909;42.680;26.324;2022-09-13T05:18:25;98201.91;;;20.30;59.05
9740;BME280;4909;42.680;26.324;2022-09-13T05:20:53;98201.81;;;20.41;59.96
9740;BME280;4909;42.680;26.324;2022-09-13T05:23:20;98207.09;;;20.71;59.28
9740;BME280;4909;42.680;26.324;2022-09-13T05:25:51;98218.44;;;20.94;58.03
9740;BME280;4909;42.680;26.324;2022-09-13T05:28:19;98209.50;;;20.65;57.31
9740;BME280;4909;42.680;26.324;2022-09-13T05:30:54;98203.38;;;20.63;58.29
9740;BME280;4909;42.680;26.324;2022-09-13T05:33:22;98211.31;;;20.93;58.74
9740;BME280;4909;42.680;26.324;2022-09-13T05:35:49;98214.16;;;21.01;57.15
9740;BME280;4909;42.680;26.324;2022-09-13T05:38:16;98223.38;;;21.08;57.65
9740;BME280;4909;42.680;26.324;2022-09-13T05:40:43;98217.44;;;21.05;57.01
9740;BME280;4909;42.680;26.324;2022-09-13T05:43:11;98207.78;;;20.93;58.37
9740;BME280;4909;42.680;26.324;2022-09-13T05:45:39;98220.56;;;21.00;58.46
9740;BME280;4909;42.680;26.324;2022-09-13T05:48:07;98215.59;;;21.05;56.60
9740;BME280;4909;42.680;26.324;2022-09-13T05:50:36;98198.28;;;20.60;57.43
9740;BME280;4909;42.680;26.324;2022-09-13T05:53:03;98210.47;;;20.45;58.42
9740;BME280;4909;42.680;26.324;2022-09-13T05:55:30;98224.38;;;20.40;57.71
9740;BME280;4909;42.680;26.324;2022-09-13T05:58:00;98204.38;;;20.33;57.76
9740;BME280;4909;42.680;26.324;2022-09-13T06:00:27;98193.78;;;20.11;59.38
9740;BME280;4909;42.680;26.324;2022-09-13T06:02:55;98215.38;;;20.30;59.11
9740;BME280;4909;42.680;26.324;2022-09-13T06:05:23;98208.69;;;20.24;59.49
9740;BME280;4909;42.680;26.324;2022-09-13T06:07:50;98210.44;;;20.35;58.71
9740;BME280;4909;42.680;26.324;2022-09-13T06:10:17;98196.63;;;20.28;58.33
9740;BME280;4909;42.680;26.324;2022-09-13T06:12:45;98210.34;;;20.06;58.84
9740;BME280;4909;42.680;26.324;2022-09-13T06:15:12;98217.22;;;20.29;59.94
9740;BME280;4909;42.680;26.324;2022-09-13T06:17:39;98210.50;;;20.14;58.67
9740;BME280;4909;42.680;26.324;2022-09-13T06:20:07;98222.81;;;20.37;58.82
9740;BME280;4909;42.680;26.324;2022-09-13T06:22:36;98219.53;;;20.34;58.13
9740;BME280;4909;42.680;26.324;2022-09-13T06:25:04;98219.69;;;20.42;57.81
9740;BME280;4909;42.680;26.324;2022-09-13T06:27:31;98189.00;;;20.33;57.21
9740;BME280;4909;42.680;26.324;2022-09-13T06:29:58;98233.19;;;20.61;56.77
9740;BME280;4909;42.680;26.324;2022-09-13T06:32:25;98232.44;;;20.40;57.88
9740;BME280;4909;42.680;26.324;2022-09-13T06:34:52;98228.78;;;20.51;58.80
9740;BME280;4909;42.680;26.324;2022-09-13T06:37:19;98228.38;;;20.65;58.05
9740;BME280;4909;42.680;26.324;2022-09-13T06:39:47;98226.81;;;20.72;57.57
9740;BME280;4909;42.680;26.324;2022-09-13T06:42:14;98230.78;;;20.87;58.20
9740;BME280;4909;42.680;26.324;2022-09-13T06:44:41;98234.50;;;21.15;58.09
9740;BME280;4909;42.680;26.324;2022-09-13T06:47:10;98209.75;;;21.29;58.10
9740;BME280;4909;42.680;26.324;2022-09-13T06:49:37;98243.34;;;21.63;54.09
9740;BME280;4909;42.680;26.324;2022-09-13T06:52:05;98241.53;;;22.01;54.33
9740;BME280;4909;42.680;26.324;2022-09-13T06:54:32;98239.53;;;22.30;52.19
9740;BME280;4909;42.680;26.324;2022-09-13T06:57:00;98228.44;;;22.51;50.44
9740;BME280;4909;42.680;26.324;2022-09-13T06:59:28;98240.25;;;22.68;52.63
9740;BME280;4909;42.680;26.324;2022-09-13T07:01:55;98242.53;;;22.72;52.65
9740;BME280;4909;42.680;26.324;2022-09-13T07:04:22;98234.66;;;22.79;52.89
9740;BME280;4909;42.680;26.324;2022-09-13T07:06:49;98222.19;;;22.86;51.57
9740;BME280;4909;42.680;26.324;2022-09-13T07:09:17;98246.31;;;23.15;50.68
9740;BME280;4909;42.680;26.324;2022-09-13T07:11:46;98248.88;;;23.16;49.49
9740;BME280;4909;42.680;26.324;2022-09-13T07:14:17;98243.59;;;23.15;51.22
9740;BME280;4909;42.680;26.324;2022-09-13T07:16:45;98252.34;;;23.26;49.63
9740;BME280;4909;42.680;26.324;2022-09-13T07:19:14;98224.66;;;23.15;50.01
9740;BME280;4909;42.680;26.324;2022-09-13T07:21:41;98210.81;;;23.18;49.69
9740;BME280;4909;42.680;26.324;2022-09-13T07:24:09;98243.97;;;23.37;49.30
9740;BME280;4909;42.680;26.324;2022-09-13T07:26:36;98257.44;;;23.29;48.48
9740;BME280;4909;42.680;26.324;2022-09-13T07:29:05;98256.84;;;23.18;48.98
9740;BME280;4909;42.680;26.324;2022-09-13T07:31:35;98253.44;;;22.98;50.08
9740;BME280;4909;42.680;26.324;2022-09-13T07:34:04;98264.97;;;22.82;48.25
9740;BME280;4909;42.680;26.324;2022-09-13T07:36:33;98261.19;;;22.66;51.18
9740;BME280;4909;42.680;26.324;2022-09-13T07:39:01;98242.69;;;22.43;50.78
9740;BME280;4909;42.680;26.324;2022-09-13T07:41:29;98262.50;;;22.62;50.64
9740;BME280;4909;42.680;26.324;2022-09-13T07:43:56;98245.31;;;22.35;49.69
9740;BME280;4909;42.680;26.324;2022-09-13T07:46:24;98272.19;;;22.37;48.42
9740;BME280;4909;42.680;26.324;2022-09-13T07:48:55;98255.44;;;22.06;48.79
9740;BME280;4909;42.680;26.324;2022-09-13T07:51:23;98259.03;;;21.87;51.51
9740;BME280;4909;42.680;26.324;2022-09-13T07:53:51;98260.69;;;22.35;51.62
9740;BME280;4909;42.680;26.324;2022-09-13T07:56:22;98253.31;;;22.54;50.66
9740;BME280;4909;42.680;26.324;2022-09-13T07:58:51;98268.31;;;22.94;47.49
9740;BME280;4909;42.680;26.324;2022-09-13T08:01:21;98267.25;;;23.30;49.58
9740;BME280;4909;42.680;26.324;2022-09-13T08:03:51;98261.59;;;23.42;47.37
9740;BME280;4909;42.680;26.324;2022-09-13T08:06:20;98264.09;;;23.53;46.62
9740;BME280;4909;42.680;26.324;2022-09-13T08:08:47;98261.75;;;23.40;48.05
9740;BME280;4909;42.680;26.324;2022-09-13T08:11:17;98265.78;;;23.36;47.58
9740;BME280;4909;42.680;26.324;2022-09-13T08:13:44;98264.50;;;23.05;46.09
9740;BME280;4909;42.680;26.324;2022-09-13T08:16:11;98263.81;;;23.03;45.88
9740;BME280;4909;42.680;26.324;2022-09-13T08:18:42;98270.53;;;22.99;47.95
9740;BME280;4909;42.680;26.324;2022-09-13T08:21:09;98240.41;;;22.66;49.35
9740;BME280;4909;42.680;26.324;2022-09-13T08:23:37;98237.97;;;22.90;49.81
9740;BME280;4909;42.680;26.324;2022-09-13T08:26:04;98258.22;;;23.22;48.44
9740;BME280;4909;42.680;26.324;2022-09-13T08:28:33;98249.59;;;23.44;47.88
9740;BME280;4909;42.680;26.324;2022-09-13T08:31:05;98254.16;;;23.44;46.97
9740;BME280;4909;42.680;26.324;2022-09-13T08:33:32;98252.66;;;23.23;47.61
9740;BME280;4909;42.680;26.324;2022-09-13T08:35:59;98239.28;;;23.22;48.03
9740;BME280;4909;42.680;26.324;2022-09-13T08:38:26;98238.56;;;23.20;48.43
9740;BME280;4909;42.680;26.324;2022-09-13T08:40:56;98230.28;;;23.21;47.56
9740;BME280;4909;42.680;26.324;2022-09-13T08:43:39;98239.75;;;23.17;48.02
9740;BME280;4909;42.680;26.324;2022-09-13T08:46:17;98246.34;;;22.79;47.71
9740;BME280;4909;42.680;26.324;2022-09-13T08:48:50;98244.41;;;22.44;47.62
9740;BME280;4909;42.680;26.324;2022-09-13T08:51:34;98240.53;;;22.47;47.43
9740;BME280;4909;42.680;26.324;2022-09-13T08:54:21;98251.38;;;22.20;49.09
9740;BME280;4909;42.680;26.324;2022-09-13T08:57:01;98233.56;;;22.27;49.57
9740;BME280;4909;42.680;26.324;2022-09-13T08:59:42;98243.56;;;22.44;49.45
9740;BME280;4909;42.680;26.324;2022-09-13T09:02:24;98218.56;;;22.77;49.28
9740;BME280;4909;42.680;26.324;2022-09-13T09:05:00;98213.72;;;23.68;46.17
9740;BME280;4909;42.680;26.324;2022-09-13T09:07:30;98217.31;;;24.60;44.48
9740;BME280;4909;42.680;26.324;2022-09-13T09:10:02;98233.72;;;25.09;41.13
9740;BME280;4909;42.680;26.324;2022-09-13T09:12:35;98227.22;;;24.86;42.41
9740;BME280;4909;42.680;26.324;2022-09-13T09:15:13;98224.53;;;24.28;42.30
9740;BME280;4909;42.680;26.324;2022-09-13T09:17:47;98221.47;;;23.97;43.73
9740;BME280;4909;42.680;26.324;2022-09-13T09:20:23;98239.06;;;23.59;43.52
9740;BME280;4909;42.680;26.324;2022-09-13T09:22:52;98233.41;;;23.09;44.18
9740;BME280;4909;42.680;26.324;2022-09-13T09:25:20;98243.88;;;23.04;46.07
9740;BME280;4909;42.680;26.324;2022-09-13T09:27:50;98225.09;;;22.84;45.33
9740;BME280;4909;42.680;26.324;2022-09-13T09:30:18;98217.19;;;22.73;45.86
9740;BME280;4909;42.680;26.324;2022-09-13T09:33:08;98224.31;;;22.47;46.44
9740;BME280;4909;42.680;26.324;2022-09-13T09:35:46;98209.44;;;22.61;48.68
9740;BME280;4909;42.680;26.324;2022-09-13T09:38:42;98205.88;;;22.60;47.00
9740;BME280;4909;42.680;26.324;2022-09-13T09:41:14;98209.63;;;22.94;47.19
9740;BME280;4909;42.680;26.324;2022-09-13T09:43:49;98195.53;;;23.09;46.47
9740;BME280;4909;42.680;26.324;2022-09-13T09:46:26;98212.44;;;23.54;44.58
9740;BME280;4909;42.680;26.324;2022-09-13T09:48:56;98196.25;;;23.96;43.95
9740;BME280;4909;42.680;26.324;2022-09-13T09:51:27;98200.47;;;24.24;44.19
9740;BME280;4909;42.680;26.324;2022-09-13T09:53:58;98195.06;;;24.41;42.58
9740;BME280;4909;42.680;26.324;2022-09-13T09:56:29;98195.63;;;24.60;41.63
9740;BME280;4909;42.680;26.324;2022-09-13T09:58:58;98202.41;;;24.64;40.45
9740;BME280;4909;42.680;26.324;2022-09-13T10:01:29;98206.03;;;24.89;40.73
9740;BME280;4909;42.680;26.324;2022-09-13T10:04:16;98203.84;;;25.17;39.40
9740;BME280;4909;42.680;26.324;2022-09-13T10:06:44;98164.97;;;25.00;35.99
9740;BME280;4909;42.680;26.324;2022-09-13T10:09:15;98182.28;;;25.16;39.76
9740;BME280;4909;42.680;26.324;2022-09-13T10:11:46;98188.03;;;25.29;37.43
9740;BME280;4909;42.680;26.324;2022-09-13T10:14:38;98167.97;;;25.54;36.57
9740;BME280;4909;42.680;26.324;2022-09-13T10:17:15;98166.81;;;25.40;37.34
9740;BME280;4909;42.680;26.324;2022-09-13T10:19:55;98173.94;;;25.58;36.40
9740;BME280;4909;42.680;26.324;2022-09-13T10:22:24;98170.22;;;25.26;36.97
9740;BME280;4909;42.680;26.324;2022-09-13T10:24:51;98172.25;;;25.08;37.74
9740;BME280;4909;42.680;26.324;2022-09-13T10:27:29;98168.88;;;24.90;37.80
9740;BME280;4909;42.680;26.324;2022-09-13T10:30:01;98175.28;;;24.73;38.08
9740;BME280;4909;42.680;26.324;2022-09-13T10:32:31;98160.00;;;24.39;38.34
9740;BME280;4909;42.680;26.324;2022-09-13T10:35:06;98176.47;;;24.12;37.66
9740;BME280;4909;42.680;26.324;2022-09-13T10:37:34;98151.34;;;23.94;38.97
9740;BME280;4909;42.680;26.324;2022-09-13T10:40:04;98165.59;;;24.04;39.31
9740;BME280;4909;42.680;26.324;2022-09-13T10:42:34;98180.53;;;24.08;39.02
9740;BME280;4909;42.680;26.324;2022-09-13T10:45:04;98171.28;;;23.85;38.21
9740;BME280;4909;42.680;26.324;2022-09-13T10:47:36;98180.31;;;24.01;39.82
9740;BME280;4909;42.680;26.324;2022-09-13T10:50:22;98180.50;;;24.00;38.93
9740;BME280;4909;42.680;26.324;2022-09-13T10:52:51;98186.72;;;23.92;38.31
9740;BME280;4909;42.680;26.324;2022-09-13T10:55:33;98175.47;;;23.71;38.19
9740;BME280;4909;42.680;26.324;2022-09-13T10:58:18;98180.81;;;23.97;38.72
9740;BME280;4909;42.680;26.324;2022-09-13T11:01:12;98188.59;;;23.92;39.33
9740;BME280;4909;42.680;26.324;2022-09-13T11:04:11;98183.00;;;23.85;39.06
9740;BME280;4909;42.680;26.324;2022-09-13T11:06:49;98191.25;;;23.75;40.38
9740;BME280;4909;42.680;26.324;2022-09-13T11:09:23;98185.97;;;23.48;40.34
9740;BME280;4909;42.680;26.324;2022-09-13T11:12:01;98163.91;;;23.43;40.77
9740;BME280;4909;42.680;26.324;2022-09-13T11:14:41;98180.13;;;23.35;38.86
9740;BME280;4909;42.680;26.324;2022-09-13T11:17:20;98159.78;;;23.31;38.07
9740;BME280;4909;42.680;26.324;2022-09-13T11:20:03;98170.44;;;23.50;39.49
9740;BME280;4909;42.680;26.324;2022-09-13T11:23:13;98177.56;;;23.51;38.89
9740;BME280;4909;42.680;26.324;2022-09-13T11:26:00;98168.72;;;23.49;38.99
9740;BME280;4909;42.680;26.324;2022-09-13T11:28:40;98173.84;;;23.52;40.25
9740;BME280;4909;42.680;26.324;2022-09-13T11:31:29;98172.31;;;23.58;40.72
9740;BME280;4909;42.680;26.324;2022-09-13T11:34:10;98167.94;;;23.57;40.38
9740;BME280;4909;42.680;26.324;2022-09-13T11:39:31;98159.94;;;23.47;40.52
9740;BME280;4909;42.680;26.324;2022-09-13T11:42:13;98107.19;;;23.08;41.32
9740;BME280;4909;42.680;26.324;2022-09-13T11:44:58;98119.44;;;23.20;40.97
9740;BME280;4909;42.680;26.324;2022-09-13T11:47:39;98152.09;;;23.70;40.62
9740;BME280;4909;42.680;26.324;2022-09-13T11:50:23;98160.09;;;23.79;38.06
9740;BME280;4909;42.680;26.324;2022-09-13T11:53:03;98159.44;;;23.86;38.69
9740;BME280;4909;42.680;26.324;2022-09-13T11:55:38;98145.09;;;24.01;39.47
9740;BME280;4909;42.680;26.324;2022-09-13T11:58:12;98145.19;;;24.17;39.11
9740;BME280;4909;42.680;26.324;2022-09-13T12:00:42;98135.06;;;23.94;39.04
9740;BME280;4909;42.680;26.324;2022-09-13T12:03:16;98148.16;;;24.06;39.71
9740;BME280;4909;42.680;26.324;2022-09-13T12:05:50;98137.06;;;23.83;38.09
9740;BME280;4909;42.680;26.324;2022-09-13T12:08:20;98152.31;;;23.85;37.65
9740;BME280;4909;42.680;26.324;2022-09-13T12:10:53;98161.63;;;23.82;38.39
9740;BME280;4909;42.680;26.324;2022-09-13T12:13:22;98160.13;;;23.88;38.06
9740;BME280;4909;42.680;26.324;2022-09-13T12:15:54;98155.69;;;23.78;38.60
9740;BME280;4909;42.680;26.324;2022-09-13T12:18:25;98165.16;;;23.74;37.92
9740;BME280;4909;42.680;26.324;2022-09-13T12:20:59;98153.25;;;23.67;39.21
9740;BME280;4909;42.680;26.324;2022-09-13T12:23:35;98149.28;;;23.88;39.58
9740;BME280;4909;42.680;26.324;2022-09-13T12:26:06;98154.03;;;23.94;38.68
9740;BME280;4909;42.680;26.324;2022-09-13T12:28:39;98156.19;;;23.82;38.66
9740;BME280;4909;42.680;26.324;2022-09-13T12:31:11;98157.94;;;23.91;38.88
9740;BME280;4909;42.680;26.324;2022-09-13T12:33:39;98159.69;;;24.00;38.98
9740;BME280;4909;42.680;26.324;2022-09-13T12:36:41;98135.63;;;23.63;38.93
9740;BME280;4909;42.680;26.324;2022-09-13T12:39:24;98151.56;;;23.66;39.35
9740;BME280;4909;42.680;26.324;2022-09-13T12:42:15;98036.06;;;22.98;39.18
9740;BME280;4909;42.680;26.324;2022-09-13T12:44:59;98066.63;;;23.16;38.41
9740;BME280;4909;42.680;26.324;2022-09-13T12:47:51;98148.69;;;23.68;37.74
9740;BME280;4909;42.680;26.324;2022-09-13T12:50:43;98153.09;;;23.69;36.95
9740;BME280;4909;42.680;26.324;2022-09-13T12:53:28;98145.53;;;23.80;38.29
9740;BME280;4909;42.680;26.324;2022-09-13T12:56:05;98146.19;;;23.82;37.88
9740;BME280;4909;42.680;26.324;2022-09-13T12:58:54;98146.38;;;23.81;37.98
9740;BME280;4909;42.680;26.324;2022-09-13T13:01:27;98142.56;;;24.00;37.71
9740;BME280;4909;42.680;26.324;2022-09-13T13:03:58;98062.81;;;23.60;38.20
9740;BME280;4909;42.680;26.324;2022-09-13T13:06:31;98056.34;;;23.53;38.16
9740;BME280;4909;42.680;26.324;2022-09-13T13:09:04;98067.72;;;23.65;37.55
9740;BME280;4909;42.680;26.324;2022-09-13T13:11:42;98143.56;;;24.07;37.76
9740;BME280;4909;42.680;26.324;2022-09-13T13:14:27;98100.63;;;23.78;37.87
9740;BME280;4909;42.680;26.324;2022-09-13T13:20:39;98145.53;;;24.31;36.60
9740;BME280;4909;42.680;26.324;2022-09-13T13:23:16;98104.41;;;24.01;38.32
9740;BME280;4909;42.680;26.324;2022-09-13T13:26:00;98113.41;;;24.02;36.02
9740;BME280;4909;42.680;26.324;2022-09-13T13:29:04;98133.59;;;24.07;36.62
9740;BME280;4909;42.680;26.324;2022-09-13T13:31:36;98148.34;;;24.13;37.33
9740;BME280;4909;42.680;26.324;2022-09-13T13:34:26;98146.19;;;23.82;36.61
9740;BME280;4909;42.680;26.324;2022-09-13T13:36:58;98111.97;;;23.73;37.05
9740;BME280;4909;42.680;26.324;2022-09-13T13:39:37;98075.00;;;23.56;37.69
9740;BME280;4909;42.680;26.324;2022-09-13T13:42:21;98104.09;;;23.54;36.11
9740;BME280;4909;42.680;26.324;2022-09-13T13:45:05;98155.25;;;23.91;37.80
9740;BME280;4909;42.680;26.324;2022-09-13T13:51:18;98153.44;;;24.16;35.28
9740;BME280;4909;42.680;26.324;2022-09-13T13:53:50;98145.13;;;24.09;34.96
9740;BME280;4909;42.680;26.324;2022-09-13T13:56:21;98159.59;;;24.18;33.95